Aromas, California
Current Conditions -  °F | °C
As of 2:53 PM on Tuesday 27 Jan 2015 (Local Time) from KWVI Reporting Station
Clear Clear  
Wind Chill: 20°   Ceiling: Unl
Heat Index: 20°   Visibility: 10mi
Dew Point: 10°   Wind: 3mph
Humidity: 52%   Direction: 230°SW
Pressure: 30.2"   Gusts: NA
Location:  36.88°N, 121.64°W
Report Text: KWVI 272253Z AUTO 23003KT 10SM CLR 20/10 A3020 RMK AO2 SLP226 T02000100
Loading
Personal Weather Stations






























Interactive Weather Map New forecast layout! Learn more

10-Day Weather Forecast

Advertisements
Track Severe Weather on mobile